Time,TemperatureF,DewpointF,PressureIn,WindDirection,WindDirectionDegrees,WindSpeedMPH,WindSpeedGustMPH,Humidity,HourlyPrecipIn,Conditions,Clouds,dailyrainin,SoftwareType,DateUTC
2013-02-04 00:03:00,40.2,26.6,30.02,NNE,22,0.1,1.0,58,0.00,,,0.00,WeatherDisplay:10.37,2013-02-04 06:03:00,
2013-02-04 00:08:00,39.6,26.4,30.02,NNE,22,0.0,1.1,59,0.00,,,0.00,WeatherDisplay:10.37,2013-02-04 06:08:00,
2013-02-04 00:13:00,39.2,26.5,30.02,NNW,344,0.6,3.5,60,0.00,,,0.00,WeatherDisplay:10.37,2013-02-04 06:13:00,
2013-02-04 00:18:00,39.1,26.4,30.01,NNE,27,0.8,3.5,60,0.00,,,0.00,WeatherDisplay:10.37,2013-02-04 06:18:00,
2013-02-04 00:23:00,38.9,26.6,30.01,North,9,0.4,2.3,61,0.00,,,0.00,WeatherDisplay:10.37,2013-02-04 06:23:00,
2013-02-04 00:28:00,39.1,26.4,30.01,NNE,12,0.9,3.5,60,0.00,,,0.00,WeatherDisplay:10.37,2013-02-04 06:28:00,
2013-02-04 00:33:00,39.3,26.6,30.01,NE,52,0.3,1.1,60,0.00,,,0.00,WeatherDisplay:10.37,2013-02-04 06:33:00,
2013-02-04 00:38:00,39.3,26.6,30.01,North,355,0.6,2.3,60,0.00,,,0.00,WeatherDisplay:10.37,2013-02-04 06:38:00,
2013-02-04 00:43:00,39.2,26.5,30.01,ENE,65,0.1,1.1,60,0.00,,,0.00,WeatherDisplay:10.37,2013-02-04 06:43:00,
2013-02-04 00:48:00,39.1,26.4,30.00,NE,52,1.4,3.5,60,0.00,,,0.00,WeatherDisplay:10.37,2013-02-04 06:48:00,
2013-02-04 00:53:00,39.2,26.5,30.00,NE,45,0.0,0.0,60,0.00,,,0.00,WeatherDisplay:10.37,2013-02-04 06:53:00,
2013-02-04 00:58:00,38.9,26.6,30.00,NE,50,0.4,2.0,61,0.00,,,0.00,WeatherDisplay:10.37,2013-02-04 06:58:00,
2013-02-04 01:03:00,38.6,26.3,30.01,NE,50,0.0,0.0,61,0.00,,,0.00,WeatherDisplay:10.37,2013-02-04 07:03:00,
2013-02-04 01:08:00,38.3,26.4,30.01,NE,50,0.0,0.0,62,0.00,,,0.00,WeatherDisplay:10.37,2013-02-04 07:08:00,
2013-02-04 01:13:00,38.0,27.3,30.01,NE,42,0.4,1.1,65,0.00,,,0.00,WeatherDisplay:10.37,2013-02-04 07:13:00,
2013-02-04 01:18:00,37.8,26.7,30.00,NE,38,0.1,1.1,64,0.00,,,0.00,WeatherDisplay:10.37,2013-02-04 07:18:00,
2013-02-04 01:23:00,37.5,26.8,30.00,NE,38,0.0,0.0,65,0.00,,,0.00,WeatherDisplay:10.37,2013-02-04 07:23:00,
2013-02-04 01:28:00,37.3,26.6,30.00,NNE,31,0.0,1.1,65,0.00,,,0.00,WeatherDisplay:10.37,2013-02-04 07:28:00,
2013-02-04 01:33:00,37.2,26.9,30.00,NNE,32,0.0,1.1,66,0.00,,,0.00,WeatherDisplay:10.37,2013-02-04 07:33:00,
2013-02-04 01:38:00,37.0,26.7,30.00,NNE,31,0.6,2.3,66,0.00,,,0.00,WeatherDisplay:10.37,2013-02-04 07:38:00,
2013-02-04 01:43:00,37.0,26.3,30.00,NNE,30,0.0,2.3,65,0.00,,,0.00,WeatherDisplay:10.37,2013-02-04 07:43:00,
2013-02-04 01:48:00,37.2,26.5,30.00,ENE,68,0.4,2.3,65,0.00,,,0.00,WeatherDisplay:10.37,2013-02-04 07:48:00,
2013-02-04 01:53:00,37.5,26.4,30.00,NE,35,1.3,4.6,64,0.00,,,0.00,WeatherDisplay:10.37,2013-02-04 07:53:00,
2013-02-04 01:58:00,37.8,25.9,30.00,NE,44,2.6,5.8,62,0.00,,,0.00,WeatherDisplay:10.37,2013-02-04 07:58:00,
2013-02-04 02:03:00,38.2,25.9,29.99,ENE,69,0.9,3.5,61,0.00,,,0.00,WeatherDisplay:10.37,2013-02-04 08:03:00,
2013-02-04 02:08:00,38.3,25.6,29.99,ENE,57,0.0,0.0,60,0.00,,,0.00,WeatherDisplay:10.37,2013-02-04 08:08:00,
2013-02-04 02:13:00,38.5,25.4,29.99,NNE,30,0.1,1.1,59,0.00,,,0.00,WeatherDisplay:10.37,2013-02-04 08:13:00,
2013-02-04 02:18:00,38.6,25.5,30.00,NNE,31,0.4,3.5,59,0.00,,,0.00,WeatherDisplay:10.37,2013-02-04 08:18:00,
2013-02-04 02:23:00,38.6,25.1,30.00,ENE,64,0.0,0.0,58,0.00,,,0.00,WeatherDisplay:10.37,2013-02-04 08:23:00,
2013-02-04 02:28:00,38.6,25.1,30.00,ENE,64,0.0,1.1,58,0.00,,,0.00,WeatherDisplay:10.37,2013-02-04 08:28:00,
2013-02-04 02:33:00,38.5,25.4,30.00,NNE,33,0.7,2.3,59,0.00,,,0.00,WeatherDisplay:10.37,2013-02-04 08:33:00,
2013-02-04 02:38:00,38.2,25.5,30.00,East,92,0.4,2.3,60,0.00,,,0.00,WeatherDisplay:10.37,2013-02-04 08:38:00,
2013-02-04 02:43:00,37.9,26.0,30.00,ENE,69,0.0,2.3,62,0.00,,,0.00,WeatherDisplay:10.37,2013-02-04 08:43:00,
2013-02-04 02:48:00,37.5,26.8,29.99,NE,49,0.3,2.3,65,0.00,,,0.00,WeatherDisplay:10.37,2013-02-04 08:48:00,
2013-02-04 02:53:00,37.0,26.3,29.99,ENE,69,0.5,3.0,65,0.00,,,0.00,WeatherDisplay:10.37,2013-02-04 08:53:00,
2013-02-04 02:58:00,37.0,27.1,29.99,NE,47,0.0,1.1,67,0.00,,,0.00,WeatherDisplay:10.37,2013-02-04 08:58:00,
2013-02-04 03:03:00,36.8,26.9,29.98,East,96,0.7,3.5,67,0.00,,,0.00,WeatherDisplay:10.37,2013-02-04 09:03:00,
2013-02-04 03:08:00,36.9,25.5,29.98,ENE,77,0.1,1.1,63,0.00,,,0.00,WeatherDisplay:10.37,2013-02-04 09:08:00,
2013-02-04 03:13:00,37.2,25.8,29.98,ENE,77,0.0,0.0,63,0.00,,,0.00,WeatherDisplay:10.37,2013-02-04 09:13:00,
2013-02-04 03:18:00,37.2,26.1,30.00,ENE,77,0.0,1.0,64,0.00,,,0.00,WeatherDisplay:10.37,2013-02-04 09:18:00,
2013-02-04 03:23:00,37.0,26.7,30.00,NE,48,0.1,1.1,66,0.00,,,0.00,WeatherDisplay:10.37,2013-02-04 09:23:00,
2013-02-04 03:28:00,37.0,25.6,30.00,NE,42,0.0,1.1,63,0.00,,,0.00,WeatherDisplay:10.37,2013-02-04 09:28:00,
2013-02-04 03:33:00,37.2,26.5,29.99,NE,42,0.1,2.0,65,0.00,,,0.00,WeatherDisplay:10.37,2013-02-04 09:33:00,
2013-02-04 03:38:00,37.0,27.1,29.99,NE,44,0.3,1.1,67,0.00,,,0.00,WeatherDisplay:10.37,2013-02-04 09:38:00,
2013-02-04 03:43:00,36.8,26.9,29.99,NE,54,0.4,3.5,67,0.00,,,0.00,WeatherDisplay:10.37,2013-02-04 09:43:00,
2013-02-04 03:48:00,36.8,26.1,30.00,NNE,19,0.3,2.3,65,0.00,,,0.00,WeatherDisplay:10.37,2013-02-04 09:48:00,
2013-02-04 03:53:00,36.9,26.2,30.00,NNE,19,0.2,1.1,65,0.00,,,0.00,WeatherDisplay:10.37,2013-02-04 09:53:00,
2013-02-04 03:58:00,36.8,27.2,30.00,NNE,24,0.1,1.1,68,0.00,,,0.00,WeatherDisplay:10.37,2013-02-04 09:58:00,
2013-02-04 04:03:00,36.6,26.3,30.00,NNE,24,0.1,1.1,66,0.00,,,0.00,WeatherDisplay:10.37,2013-02-04 10:03:00,
2013-02-04 04:08:00,36.6,26.3,30.00,NNE,23,0.8,2.3,66,0.00,,,0.00,WeatherDisplay:10.37,2013-02-04 10:08:00,
2013-02-04 04:13:00,36.5,27.6,30.00,NNE,31,0.0,2.3,70,0.00,,,0.00,WeatherDisplay:10.37,2013-02-04 10:13:00,
2013-02-04 04:18:00,36.3,27.4,29.99,ENE,77,0.4,2.3,70,0.00,,,0.00,WeatherDisplay:10.37,2013-02-04 10:18:00,
2013-02-04 04:23:00,36.6,26.3,29.99,ENE,69,0.2,1.0,66,0.00,,,0.00,WeatherDisplay:10.37,2013-02-04 10:23:00,
2013-02-04 04:28:00,36.9,26.6,29.99,ENE,67,0.7,3.0,66,0.00,,,0.00,WeatherDisplay:10.37,2013-02-04 10:28:00,
2013-02-04 04:33:00,37.0,27.4,29.99,NE,54,1.0,3.5,68,0.00,,,0.00,WeatherDisplay:10.37,2013-02-04 10:33:00,
2013-02-04 04:38:00,37.0,26.7,29.99,ENE,57,1.3,2.3,66,0.00,,,0.00,WeatherDisplay:10.37,2013-02-04 10:38:00,
2013-02-04 04:43:00,37.2,26.9,29.99,ENE,58,1.0,3.5,66,0.00,,,0.00,WeatherDisplay:10.37,2013-02-04 10:43:00,
2013-02-04 04:48:00,37.3,27.3,29.99,NE,42,1.9,3.5,67,0.00,,,0.00,WeatherDisplay:10.37,2013-02-04 10:48:00,
2013-02-04 04:53:00,37.5,27.2,29.99,ENE,78,1.0,4.6,66,0.00,,,0.00,WeatherDisplay:10.37,2013-02-04 10:53:00,
2013-02-04 04:58:00,37.6,26.9,29.99,NE,44,1.8,3.5,65,0.00,,,0.00,WeatherDisplay:10.37,2013-02-04 10:58:00,
2013-02-04 05:03:00,37.6,26.9,29.98,NNE,15,0.8,2.3,65,0.00,,,0.00,WeatherDisplay:10.37,2013-02-04 11:03:00,
2013-02-04 05:08:00,37.8,26.7,29.98,NNE,31,1.1,3.0,64,0.00,,,0.00,WeatherDisplay:10.37,2013-02-04 11:08:00,
2013-02-04 05:13:00,37.8,26.7,29.98,East,101,0.8,3.0,64,0.00,,,0.00,WeatherDisplay:10.37,2013-02-04 11:13:00,
2013-02-04 05:18:00,37.8,26.7,29.99,NE,51,1.0,3.5,64,0.00,,,0.00,WeatherDisplay:10.37,2013-02-04 11:18:00,
2013-02-04 05:23:00,37.9,27.2,29.99,NE,45,0.1,1.1,65,0.00,,,0.00,WeatherDisplay:10.37,2013-02-04 11:23:00,
2013-02-04 05:28:00,37.8,27.5,29.99,NE,44,0.1,1.1,66,0.00,,,0.00,WeatherDisplay:10.37,2013-02-04 11:28:00,
2013-02-04 05:33:00,37.6,26.9,29.99,NE,44,0.0,0.0,65,0.00,,,0.00,WeatherDisplay:10.37,2013-02-04 11:33:00,
2013-02-04 05:38:00,37.6,27.3,29.99,NE,44,0.0,0.0,66,0.00,,,0.00,WeatherDisplay:10.37,2013-02-04 11:38:00,
2013-02-04 05:43:00,37.6,27.3,29.99,NE,44,0.0,0.0,66,0.00,,,0.00,WeatherDisplay:10.37,2013-02-04 11:43:00,
2013-02-04 05:48:00,37.5,26.8,30.01,NE,44,0.1,1.1,65,0.00,,,0.00,WeatherDisplay:10.37,2013-02-04 11:48:00,
2013-02-04 05:53:00,37.5,27.2,30.01,NE,44,0.0,0.0,66,0.00,,,0.00,WeatherDisplay:10.37,2013-02-04 11:53:00,
2013-02-04 05:58:00,37.3,27.3,30.01,NE,44,0.0,0.0,67,0.00,,,0.00,WeatherDisplay:10.37,2013-02-04 11:58:00,
2013-02-04 06:03:00,37.2,27.6,30.01,NE,44,0.0,0.0,68,0.00,,,0.00,WeatherDisplay:10.37,2013-02-04 12:03:00,
2013-02-04 06:08:00,37.2,28.0,30.01,NE,44,0.0,0.0,69,0.00,,,0.00,WeatherDisplay:10.37,2013-02-04 12:08:00,
2013-02-04 06:13:00,36.9,28.4,30.01,NE,44,0.0,1.1,71,0.00,,,0.00,WeatherDisplay:10.37,2013-02-04 12:13:00,
2013-02-04 06:18:00,36.9,28.4,30.00,NE,44,0.0,0.0,71,0.00,,,0.00,WeatherDisplay:10.37,2013-02-04 12:18:00,
2013-02-04 06:23:00,36.8,27.9,30.00,NE,44,0.3,2.3,70,0.00,,,0.00,WeatherDisplay:10.37,2013-02-04 12:23:00,
2013-02-04 06:28:00,36.8,27.9,30.00,NE,44,0.0,0.0,70,0.00,,,0.00,WeatherDisplay:10.37,2013-02-04 12:28:00,
2013-02-04 06:33:00,36.6,27.4,30.01,NE,44,0.0,0.0,69,0.00,,,0.00,WeatherDisplay:10.37,2013-02-04 12:33:00,
2013-02-04 06:38:00,36.6,27.7,30.01,ENE,65,0.2,2.0,70,0.00,,,0.00,WeatherDisplay:10.37,2013-02-04 12:38:00,
2013-02-04 06:43:00,36.6,27.4,30.01,ENE,65,0.0,1.1,69,0.00,,,0.00,WeatherDisplay:10.37,2013-02-04 12:43:00,
2013-02-04 06:48:00,36.8,27.6,30.01,ENE,65,0.0,0.0,69,0.00,,,0.00,WeatherDisplay:10.37,2013-02-04 12:48:00,
2013-02-04 06:53:00,36.8,27.6,30.01,ENE,65,0.0,0.0,69,0.00,,,0.00,WeatherDisplay:10.37,2013-02-04 12:53:00,
2013-02-04 06:58:00,36.8,27.9,30.01,ENE,65,0.0,0.0,70,0.00,,,0.00,WeatherDisplay:10.37,2013-02-04 12:58:00,
2013-02-04 07:03:00,36.8,28.3,30.01,ENE,65,0.0,1.1,71,0.00,,,0.00,WeatherDisplay:10.37,2013-02-04 13:03:00,
2013-02-04 07:08:00,36.8,27.9,30.01,ENE,65,0.5,2.3,70,0.00,,,0.00,WeatherDisplay:10.37,2013-02-04 13:08:00,
2013-02-04 07:13:00,36.8,27.9,30.01,ENE,65,0.1,1.1,70,0.00,,,0.00,WeatherDisplay:10.37,2013-02-04 13:13:00,
2013-02-04 07:18:00,36.6,27.4,30.01,ENE,74,0.5,2.3,69,0.00,,,0.00,WeatherDisplay:10.37,2013-02-04 13:18:00,
2013-02-04 07:23:00,36.6,27.7,30.01,ENE,64,0.4,2.3,70,0.00,,,0.00,WeatherDisplay:10.37,2013-02-04 13:23:00,
2013-02-04 07:28:00,36.6,27.7,30.01,East,80,1.7,3.5,70,0.00,,,0.00,WeatherDisplay:10.37,2013-02-04 13:28:00,
2013-02-04 07:33:00,36.6,28.1,30.01,NE,49,0.5,1.1,71,0.00,,,0.00,WeatherDisplay:10.37,2013-02-04 13:33:00,
2013-02-04 07:38:00,36.6,27.7,30.01,ENE,57,0.7,3.5,70,0.00,,,0.00,WeatherDisplay:10.37,2013-02-04 13:38:00,
2013-02-04 07:43:00,36.8,27.9,30.01,ENE,66,0.0,1.1,70,0.00,,,0.00,WeatherDisplay:10.37,2013-02-04 13:43:00,
2013-02-04 07:48:00,36.9,28.4,30.01,ENE,66,0.1,1.0,71,0.00,,,0.00,WeatherDisplay:10.37,2013-02-04 13:48:00,
2013-02-04 07:53:00,37.0,28.5,30.01,ENE,66,0.0,1.0,71,0.00,,,0.00,WeatherDisplay:10.37,2013-02-04 13:53:00,
2013-02-04 07:58:00,37.2,28.7,30.01,ENE,66,0.2,2.0,71,0.00,,,0.00,WeatherDisplay:10.37,2013-02-04 13:58:00,
2013-02-04 08:03:00,37.3,28.4,30.03,ENE,66,0.0,0.0,70,0.00,CLR,,0.00,WeatherDisplay:10.37,2013-02-04 14:03:00,
2013-02-04 08:08:00,37.6,29.0,30.03,ENE,66,0.6,2.0,71,0.00,CLR,,0.00,WeatherDisplay:10.37,2013-02-04 14:08:00,
2013-02-04 08:13:00,37.8,28.9,30.03,ENE,61,0.6,2.3,70,0.00,CLR,,0.00,WeatherDisplay:10.37,2013-02-04 14:13:00,
2013-02-04 08:18:00,38.0,28.4,30.03,NE,54,0.0,0.0,68,0.00,CLR,,0.00,WeatherDisplay:10.37,2013-02-04 14:18:00,
2013-02-04 08:23:00,38.3,28.3,30.03,ENE,67,1.0,3.5,67,0.00,CLR,,0.00,WeatherDisplay:10.37,2013-02-04 14:23:00,
2013-02-04 08:28:00,38.5,28.5,30.03,ENE,67,0.8,2.3,67,0.00,CLR,,0.00,WeatherDisplay:10.37,2013-02-04 14:28:00,
2013-02-04 08:33:00,38.6,28.6,30.03,ENE,67,0.0,0.0,67,0.00,CLR,,0.00,WeatherDisplay:10.37,2013-02-04 14:33:00,
2013-02-04 08:38:00,38.9,28.9,30.03,ENE,67,0.7,3.0,67,0.00,CLR,,0.00,WeatherDisplay:10.37,2013-02-04 14:38:00,
2013-02-04 08:43:00,39.1,28.3,30.03,ENE,61,1.3,3.5,65,0.00,CLR,,0.00,WeatherDisplay:10.37,2013-02-04 14:43:00,
2013-02-04 08:48:00,39.2,28.4,30.03,East,98,0.3,2.0,65,0.00,CLR,,0.00,WeatherDisplay:10.37,2013-02-04 14:48:00,
2013-02-04 08:53:00,39.5,28.3,30.03,ENE,57,0.0,1.0,64,0.00,CLR,,0.00,WeatherDisplay:10.37,2013-02-04 14:53:00,
2013-02-04 08:58:00,39.6,28.4,30.03,ENE,67,0.1,0.0,64,0.00,CLR,,0.00,WeatherDisplay:10.37,2013-02-04 14:58:00,
2013-02-04 09:03:00,40.2,29.0,30.03,ENE,67,0.0,0.0,64,0.00,,,0.00,WeatherDisplay:10.37,2013-02-04 15:03:00,
2013-02-04 09:08:00,40.6,29.0,30.03,ENE,67,0.0,0.0,63,0.00,,,0.00,WeatherDisplay:10.37,2013-02-04 15:08:00,
2013-02-04 09:13:00,41.2,29.9,30.03,ENE,67,0.1,1.1,64,0.00,,,0.00,WeatherDisplay:10.37,2013-02-04 15:13:00,
2013-02-04 09:18:00,41.8,29.3,30.03,ENE,67,0.1,1.1,61,0.00,,,0.00,WeatherDisplay:10.37,2013-02-04 15:18:00,
2013-02-04 09:23:00,41.8,29.3,30.03,ENE,73,3.0,4.6,61,0.00,,,0.00,WeatherDisplay:10.37,2013-02-04 15:23:00,
2013-02-04 09:28:00,41.5,29.4,30.03,NE,51,0.0,0.0,62,0.00,,,0.00,WeatherDisplay:10.37,2013-02-04 15:28:00,
2013-02-04 09:33:00,41.8,30.1,30.02,NE,51,0.0,1.1,63,0.00,,,0.00,WeatherDisplay:10.37,2013-02-04 15:33:00,
2013-02-04 09:38:00,41.9,29.4,30.02,NE,51,0.4,1.1,61,0.00,,,0.00,WeatherDisplay:10.37,2013-02-04 15:38:00,
2013-02-04 09:43:00,42.1,30.0,30.02,ENE,59,0.0,0.0,62,0.00,,,0.00,WeatherDisplay:10.37,2013-02-04 15:43:00,
2013-02-04 09:48:00,42.3,31.0,30.03,ENE,58,0.0,0.0,64,0.00,,,0.00,WeatherDisplay:10.37,2013-02-04 15:48:00,
2013-02-04 09:53:00,42.8,31.1,30.03,ENE,58,0.0,1.1,63,0.00,,,0.00,WeatherDisplay:10.37,2013-02-04 15:53:00,
2013-02-04 09:58:00,43.1,30.1,30.03,South,182,0.0,3.5,60,0.00,,,0.00,WeatherDisplay:10.37,2013-02-04 15:58:00,
2013-02-04 10:03:00,43.3,30.3,30.04,South,182,1.3,3.5,60,0.00,,,0.00,WeatherDisplay:10.37,2013-02-04 16:03:00,
2013-02-04 10:08:00,43.3,30.7,30.04,SSW,208,0.2,2.3,61,0.00,,,0.00,WeatherDisplay:10.37,2013-02-04 16:08:00,
2013-02-04 10:13:00,43.3,30.7,30.04,SSW,205,0.3,2.3,61,0.00,,,0.00,WeatherDisplay:10.37,2013-02-04 16:13:00,
2013-02-04 10:18:00,43.3,30.3,30.03,SSW,194,1.5,3.5,60,0.00,,,0.00,WeatherDisplay:10.37,2013-02-04 16:18:00,
2013-02-04 10:23:00,43.5,30.9,30.03,South,189,0.2,1.1,61,0.00,,,0.00,WeatherDisplay:10.37,2013-02-04 16:23:00,
2013-02-04 10:28:00,43.6,31.0,30.03,South,189,0.4,2.3,61,0.00,,,0.00,WeatherDisplay:10.37,2013-02-04 16:28:00,
2013-02-04 10:33:00,43.8,30.8,30.03,SSW,202,0.2,1.1,60,0.00,,,0.00,WeatherDisplay:10.37,2013-02-04 16:33:00,
2013-02-04 10:38:00,43.9,31.3,30.03,South,182,0.4,4.0,61,0.00,,,0.00,WeatherDisplay:10.37,2013-02-04 16:38:00,
2013-02-04 10:43:00,44.1,30.7,30.03,South,191,0.2,2.0,59,0.00,,,0.00,WeatherDisplay:10.37,2013-02-04 16:43:00,
2013-02-04 10:48:00,44.2,31.2,30.02,SW,220,0.0,0.0,60,0.00,,,0.00,WeatherDisplay:10.37,2013-02-04 16:48:00,
2013-02-04 10:53:00,44.5,30.6,30.02,SSW,192,0.5,2.0,58,0.00,,,0.00,WeatherDisplay:10.37,2013-02-04 16:53:00,
2013-02-04 10:58:00,44.8,30.9,30.02,South,178,0.0,1.1,58,0.00,,,0.00,WeatherDisplay:10.37,2013-02-04 16:58:00,
2013-02-04 11:03:00,45.1,31.6,30.02,South,178,0.0,0.0,59,0.00,,,0.00,WeatherDisplay:10.37,2013-02-04 17:03:00,
2013-02-04 11:08:00,45.5,31.1,30.02,South,191,2.0,4.0,57,0.00,,,0.00,WeatherDisplay:10.37,2013-02-04 17:08:00,
2013-02-04 11:13:00,45.5,31.1,30.02,South,188,0.0,0.0,57,0.00,,,0.00,WeatherDisplay:10.37,2013-02-04 17:13:00,
2013-02-04 11:18:00,45.7,31.3,30.01,South,188,0.0,0.0,57,0.00,,,0.00,WeatherDisplay:10.37,2013-02-04 17:18:00,
2013-02-04 11:23:00,46.0,32.0,30.01,South,188,0.0,1.1,58,0.00,,,0.00,WeatherDisplay:10.37,2013-02-04 17:23:00,
2013-02-04 11:28:00,46.2,32.2,30.01,South,188,0.0,0.0,58,0.00,,,0.00,WeatherDisplay:10.37,2013-02-04 17:28:00,
2013-02-04 11:33:00,46.5,32.1,30.01,South,188,0.6,2.3,57,0.00,,,0.00,WeatherDisplay:10.37,2013-02-04 17:33:00,
2013-02-04 11:38:00,46.7,31.8,30.01,South,188,0.1,1.1,56,0.00,,,0.00,WeatherDisplay:10.37,2013-02-04 17:38:00,
2013-02-04 11:43:00,47.0,31.2,30.01,South,188,0.0,1.1,54,0.00,,,0.00,WeatherDisplay:10.37,2013-02-04 17:43:00,
2013-02-04 11:48:00,47.0,30.7,30.00,South,188,0.0,2.3,53,0.00,,,0.00,WeatherDisplay:10.37,2013-02-04 17:48:00,
2013-02-04 11:53:00,47.3,30.5,30.00,South,188,1.0,3.5,52,0.00,,,0.00,WeatherDisplay:10.37,2013-02-04 17:53:00,
2013-02-04 11:58:00,47.4,29.2,30.00,South,182,2.8,6.9,49,0.00,,,0.00,WeatherDisplay:10.37,2013-02-04 17:58:00,
2013-02-04 12:03:00,47.3,30.5,30.00,SSW,202,0.8,4.0,52,0.00,,,0.00,WeatherDisplay:10.37,2013-02-04 18:03:00,
2013-02-04 12:08:00,47.3,31.0,30.00,South,178,0.0,0.0,53,0.00,,,0.00,WeatherDisplay:10.37,2013-02-04 18:08:00,
2013-02-04 12:13:00,47.4,31.6,30.00,SSW,197,0.0,0.0,54,0.00,,,0.00,WeatherDisplay:10.37,2013-02-04 18:13:00,
2013-02-04 12:18:00,47.7,30.4,29.99,SSW,197,0.6,2.3,51,0.00,,,0.00,WeatherDisplay:10.37,2013-02-04 18:18:00,
2013-02-04 12:23:00,47.7,30.0,29.99,SSW,201,1.0,4.6,50,0.00,,,0.00,WeatherDisplay:10.37,2013-02-04 18:23:00,
2013-02-04 12:28:00,47.9,31.1,29.99,South,182,0.1,1.1,52,0.00,,,0.00,WeatherDisplay:10.37,2013-02-04 18:28:00,
2013-02-04 12:33:00,48.2,30.9,29.98,South,182,0.5,1.1,51,0.00,,,0.00,WeatherDisplay:10.37,2013-02-04 18:33:00,
2013-02-04 12:38:00,48.6,32.7,29.98,SW,229,0.1,1.1,54,0.00,,,0.00,WeatherDisplay:10.37,2013-02-04 18:38:00,
2013-02-04 12:43:00,49.1,32.2,29.98,SW,216,0.5,3.5,52,0.00,,,0.00,WeatherDisplay:10.37,2013-02-04 18:43:00,
2013-02-04 12:48:00,49.5,31.1,29.97,SSW,207,1.8,4.0,49,0.00,,,0.00,WeatherDisplay:10.37,2013-02-04 18:48:00,
2013-02-04 12:53:00,49.8,32.4,29.97,SE,142,0.0,0.0,51,0.00,,,0.00,WeatherDisplay:10.37,2013-02-04 18:53:00,
2013-02-04 12:58:00,49.8,31.4,29.97,SE,134,1.1,3.5,49,0.00,,,0.00,WeatherDisplay:10.37,2013-02-04 18:58:00,
2013-02-04 13:03:00,49.8,31.4,29.95,SSW,211,0.2,3.5,49,0.00,,,0.00,WeatherDisplay:10.37,2013-02-04 19:03:00,
2013-02-04 13:08:00,49.6,30.7,29.95,South,184,3.9,4.6,48,0.00,,,0.00,WeatherDisplay:10.37,2013-02-04 19:08:00,
2013-02-04 13:13:00,49.5,31.6,29.95,South,181,2.2,5.8,50,0.00,,,0.00,WeatherDisplay:10.37,2013-02-04 19:13:00,
2013-02-04 13:18:00,49.5,32.1,29.95,South,177,0.0,0.0,51,0.00,,,0.00,WeatherDisplay:10.37,2013-02-04 19:18:00,
2013-02-04 13:23:00,49.5,33.1,29.95,South,175,1.2,4.0,53,0.00,,,0.00,WeatherDisplay:10.37,2013-02-04 19:23:00,
2013-02-04 13:28:00,49.6,32.7,29.95,SSE,167,0.4,3.5,52,0.00,,,0.00,WeatherDisplay:10.37,2013-02-04 19:28:00,
2013-02-04 13:33:00,49.6,31.7,29.94,SSW,196,1.7,3.5,50,0.00,,,0.00,WeatherDisplay:10.37,2013-02-04 19:33:00,
2013-02-04 13:38:00,49.5,33.1,29.94,SSW,194,3.1,4.6,53,0.00,,,0.00,WeatherDisplay:10.37,2013-02-04 19:38:00,
2013-02-04 13:43:00,49.4,33.0,29.94,SSW,194,0.9,3.5,53,0.00,,,0.00,WeatherDisplay:10.37,2013-02-04 19:43:00,
2013-02-04 13:48:00,49.5,32.1,29.93,SSW,194,2.2,3.5,51,0.00,,,0.00,WeatherDisplay:10.37,2013-02-04 19:48:00,
2013-02-04 13:53:00,49.5,33.1,29.93,South,181,0.0,4.6,53,0.00,,,0.00,WeatherDisplay:10.37,2013-02-04 19:53:00,
2013-02-04 13:58:00,49.8,34.3,29.93,SSW,207,0.0,0.0,55,0.00,,,0.00,WeatherDisplay:10.37,2013-02-04 19:58:00,
2013-02-04 14:03:00,50.1,33.1,29.93,SSW,199,1.2,3.5,52,0.00,,,0.00,WeatherDisplay:10.37,2013-02-04 20:03:00,
2013-02-04 14:08:00,50.2,32.8,29.93,South,191,0.1,2.3,51,0.00,,,0.00,WeatherDisplay:10.37,2013-02-04 20:08:00,
2013-02-04 14:13:00,50.4,31.9,29.93,South,182,2.4,6.9,49,0.00,,,0.00,WeatherDisplay:10.37,2013-02-04 20:13:00,
2013-02-04 14:18:00,50.4,31.9,29.92,South,190,2.3,3.5,49,0.00,,,0.00,WeatherDisplay:10.37,2013-02-04 20:18:00,
2013-02-04 14:23:00,50.5,33.0,29.92,South,190,0.2,1.1,51,0.00,,,0.00,WeatherDisplay:10.37,2013-02-04 20:23:00,
2013-02-04 14:28:00,50.5,32.0,29.92,SSW,202,0.0,0.0,49,0.00,,,0.00,WeatherDisplay:10.37,2013-02-04 20:28:00,
2013-02-04 14:33:00,50.5,29.4,29.92,South,182,2.0,6.9,44,0.00,,,0.00,WeatherDisplay:10.37,2013-02-04 20:33:00,
2013-02-04 14:38:00,50.4,30.9,29.92,SSW,200,2.5,4.0,47,0.00,,,0.00,WeatherDisplay:10.37,2013-02-04 20:38:00,
2013-02-04 14:43:00,50.4,29.3,29.92,South,170,2.0,3.5,44,0.00,,,0.00,WeatherDisplay:10.37,2013-02-04 20:43:00,
2013-02-04 14:48:00,50.4,29.3,29.92,SSW,200,0.1,2.3,44,0.00,,,0.00,WeatherDisplay:10.37,2013-02-04 20:48:00,
2013-02-04 14:53:00,50.5,29.9,29.92,ESE,121,1.3,3.5,45,0.00,,,0.00,WeatherDisplay:10.37,2013-02-04 20:53:00,
2013-02-04 14:58:00,50.7,30.1,29.92,South,176,2.3,3.5,45,0.00,,,0.00,WeatherDisplay:10.37,2013-02-04 20:58:00,
2013-02-04 15:03:00,50.8,31.3,29.92,SSW,211,0.1,1.1,47,0.00,,,0.00,WeatherDisplay:10.37,2013-02-04 21:03:00,
2013-02-04 15:08:00,51.0,30.4,29.92,South,169,1.0,3.0,45,0.00,,,0.00,WeatherDisplay:10.37,2013-02-04 21:08:00,
2013-02-04 15:13:00,51.0,29.8,29.92,SSW,194,3.0,6.9,44,0.00,,,0.00,WeatherDisplay:10.37,2013-02-04 21:13:00,
2013-02-04 15:18:00,51.3,30.1,29.92,SE,130,1.6,3.5,44,0.00,,,0.00,WeatherDisplay:10.37,2013-02-04 21:18:00,
2013-02-04 15:23:00,51.6,30.4,29.92,SSE,159,2.1,4.0,44,0.00,,,0.00,WeatherDisplay:10.37,2013-02-04 21:23:00,
2013-02-04 15:28:00,51.6,30.4,29.92,SSW,197,1.0,3.0,44,0.00,,,0.00,WeatherDisplay:10.37,2013-02-04 21:28:00,
2013-02-04 15:33:00,51.6,29.8,29.93,SSW,200,1.2,4.6,43,0.00,,,0.00,WeatherDisplay:10.37,2013-02-04 21:33:00,
2013-02-04 15:38:00,51.6,32.0,29.93,SSW,192,0.0,1.1,47,0.00,,,0.00,WeatherDisplay:10.37,2013-02-04 21:38:00,
2013-02-04 15:43:00,51.3,31.7,29.93,SSW,192,0.8,3.5,47,0.00,,,0.00,WeatherDisplay:10.37,2013-02-04 21:43:00,
2013-02-04 15:48:00,51.1,33.1,29.92,SW,216,0.1,1.0,50,0.00,,,0.00,WeatherDisplay:10.37,2013-02-04 21:48:00,
2013-02-04 15:53:00,51.0,31.5,29.92,SSE,165,0.1,3.5,47,0.00,,,0.00,WeatherDisplay:10.37,2013-02-04 21:53:00,
2013-02-04 15:58:00,50.7,31.7,29.92,SSW,213,1.4,3.5,48,0.00,,,0.00,WeatherDisplay:10.37,2013-02-04 21:58:00,
2013-02-04 16:03:00,50.7,32.7,29.93,SSW,213,0.0,1.1,50,0.00,,,0.00,WeatherDisplay:10.37,2013-02-04 22:03:00,
2013-02-04 16:08:00,50.7,32.2,29.93,South,169,0.2,3.5,49,0.00,,,0.00,WeatherDisplay:10.37,2013-02-04 22:08:00,
2013-02-04 16:13:00,50.7,32.7,29.93,SW,224,1.9,3.5,50,0.00,,,0.00,WeatherDisplay:10.37,2013-02-04 22:13:00,
2013-02-04 16:18:00,50.5,32.0,29.92,South,186,3.7,4.6,49,0.00,,,0.00,WeatherDisplay:10.37,2013-02-04 22:18:00,
2013-02-04 16:23:00,50.4,32.4,29.92,South,177,0.9,2.3,50,0.00,,,0.00,WeatherDisplay:10.37,2013-02-04 22:23:00,
2013-02-04 16:28:00,50.2,32.8,29.92,SSW,195,2.6,4.6,51,0.00,,,0.00,WeatherDisplay:10.37,2013-02-04 22:28:00,
2013-02-04 16:33:00,50.1,32.7,29.93,South,190,0.0,0.0,51,0.00,,,0.00,WeatherDisplay:10.37,2013-02-04 22:33:00,
2013-02-04 16:38:00,49.8,31.9,29.93,South,184,1.3,3.5,50,0.00,,,0.00,WeatherDisplay:10.37,2013-02-04 22:38:00,
2013-02-04 16:43:00,49.6,32.7,29.93,South,181,0.0,1.0,52,0.00,,,0.00,WeatherDisplay:10.37,2013-02-04 22:43:00,
2013-02-04 16:48:00,49.5,33.5,29.92,South,181,0.0,0.0,54,0.00,,,0.00,WeatherDisplay:10.37,2013-02-04 22:48:00,
2013-02-04 16:53:00,49.2,33.7,29.92,South,181,0.0,0.0,55,0.00,,,0.00,WeatherDisplay:10.37,2013-02-04 22:53:00,
2013-02-04 16:58:00,49.1,34.1,29.92,South,191,0.0,1.1,56,0.00,,,0.00,WeatherDisplay:10.37,2013-02-04 22:58:00,
2013-02-04 17:03:00,48.8,33.8,29.92,South,191,0.0,1.1,56,0.00,,,0.00,WeatherDisplay:10.37,2013-02-04 23:03:00,
2013-02-04 17:08:00,48.6,34.5,29.92,South,191,0.0,0.0,58,0.00,,,0.00,WeatherDisplay:10.37,2013-02-04 23:08:00,
2013-02-04 17:13:00,48.5,34.4,29.92,South,191,0.0,0.0,58,0.00,,,0.00,WeatherDisplay:10.37,2013-02-04 23:13:00,
2013-02-04 17:18:00,48.2,34.1,29.92,South,191,0.0,0.0,58,0.00,,,0.00,WeatherDisplay:10.37,2013-02-04 23:18:00,
2013-02-04 17:23:00,47.9,33.8,29.92,South,191,0.0,0.0,58,0.00,,,0.00,WeatherDisplay:10.37,2013-02-04 23:23:00,
2013-02-04 17:28:00,47.6,33.5,29.92,South,191,0.0,0.0,58,0.00,,,0.00,WeatherDisplay:10.37,2013-02-04 23:28:00,
2013-02-04 17:33:00,47.4,33.8,29.92,South,191,0.0,0.0,59,0.00,,,0.00,WeatherDisplay:10.37,2013-02-04 23:33:00,
2013-02-04 17:38:00,47.1,33.9,29.92,South,191,0.0,0.0,60,0.00,,,0.00,WeatherDisplay:10.37,2013-02-04 23:38:00,
2013-02-04 17:43:00,46.8,33.6,29.92,South,191,0.0,0.0,60,0.00,,,0.00,WeatherDisplay:10.37,2013-02-04 23:43:00,
2013-02-04 17:48:00,46.5,33.4,29.93,South,191,0.0,0.0,60,0.00,,,0.00,WeatherDisplay:10.37,2013-02-04 23:48:00,
2013-02-04 17:53:00,46.4,34.1,29.93,South,191,0.0,0.0,62,0.00,,,0.00,WeatherDisplay:10.37,2013-02-04 23:53:00,
2013-02-04 17:58:00,46.2,33.9,29.93,South,191,0.0,0.0,62,0.00,,,0.00,WeatherDisplay:10.37,2013-02-04 23:58:00,
2013-02-04 18:03:00,46.1,33.8,29.93,South,191,0.0,0.0,62,0.00,,,0.00,WeatherDisplay:10.37,2013-02-05 00:03:00,
2013-02-04 18:08:00,46.0,34.5,29.93,South,191,0.0,0.0,64,0.00,,,0.00,WeatherDisplay:10.37,2013-02-05 00:08:00,
2013-02-04 18:13:00,45.8,34.7,29.93,South,191,0.0,0.0,65,0.00,,,0.00,WeatherDisplay:10.37,2013-02-05 00:13:00,
2013-02-04 18:18:00,45.8,34.7,29.93,South,191,0.0,0.0,65,0.00,,,0.00,WeatherDisplay:10.37,2013-02-05 00:18:00,
2013-02-04 18:23:00,45.7,33.8,29.93,South,191,0.0,0.0,63,0.00,,,0.00,WeatherDisplay:10.37,2013-02-05 00:23:00,
2013-02-04 18:28:00,45.7,33.8,29.93,South,191,0.0,0.0,63,0.00,,,0.00,WeatherDisplay:10.37,2013-02-05 00:28:00,
2013-02-04 18:33:00,45.7,34.2,29.93,South,191,0.0,0.0,64,0.00,,,0.00,WeatherDisplay:10.37,2013-02-05 00:33:00,
2013-02-04 18:38:00,45.7,34.2,29.93,South,191,0.0,0.0,64,0.00,,,0.00,WeatherDisplay:10.37,2013-02-05 00:38:00,
2013-02-04 18:43:00,45.5,34.0,29.93,South,191,0.0,0.0,64,0.00,,,0.00,WeatherDisplay:10.37,2013-02-05 00:43:00,
2013-02-04 18:48:00,45.4,33.5,29.93,South,191,0.0,0.0,63,0.00,,,0.00,WeatherDisplay:10.37,2013-02-05 00:48:00,
2013-02-04 18:53:00,45.2,33.3,29.93,South,191,0.0,0.0,63,0.00,,,0.00,WeatherDisplay:10.37,2013-02-05 00:53:00,
2013-02-04 18:58:00,45.1,34.0,29.93,South,191,0.0,0.0,65,0.00,,,0.00,WeatherDisplay:10.37,2013-02-05 00:58:00,
2013-02-04 19:03:00,45.1,33.6,29.93,South,191,0.0,0.0,64,0.00,,,0.00,WeatherDisplay:10.37,2013-02-05 01:03:00,
2013-02-04 19:08:00,44.9,32.3,29.93,South,191,0.0,0.0,61,0.00,,,0.00,WeatherDisplay:10.37,2013-02-05 01:08:00,
2013-02-04 19:13:00,44.9,31.8,29.93,South,191,0.0,0.0,60,0.00,,,0.00,WeatherDisplay:10.37,2013-02-05 01:13:00,
2013-02-04 19:18:00,44.8,32.2,29.94,South,191,0.0,0.0,61,0.00,,,0.00,WeatherDisplay:10.37,2013-02-05 01:18:00,
2013-02-04 19:23:00,44.8,33.0,29.94,South,191,0.0,0.0,63,0.00,,,0.00,WeatherDisplay:10.37,2013-02-05 01:23:00,
2013-02-04 19:28:00,44.6,33.6,29.94,South,191,0.0,0.0,65,0.00,,,0.00,WeatherDisplay:10.37,2013-02-05 01:28:00,
2013-02-04 19:33:00,44.5,33.5,29.93,South,191,0.0,0.0,65,0.00,,,0.00,WeatherDisplay:10.37,2013-02-05 01:33:00,
2013-02-04 19:38:00,44.5,33.5,29.93,South,191,0.0,0.0,65,0.00,,,0.00,WeatherDisplay:10.37,2013-02-05 01:38:00,
2013-02-04 19:43:00,44.5,34.2,29.93,South,191,0.0,0.0,67,0.00,,,0.00,WeatherDisplay:10.37,2013-02-05 01:43:00,
2013-02-04 19:48:00,44.5,34.6,29.93,South,191,0.0,0.0,68,0.00,,,0.00,WeatherDisplay:10.37,2013-02-05 01:48:00,
2013-02-04 19:53:00,44.3,34.8,29.93,South,191,0.0,0.0,69,0.00,,,0.00,WeatherDisplay:10.37,2013-02-05 01:53:00,
2013-02-04 19:58:00,44.3,34.4,29.93,South,191,0.0,0.0,68,0.00,,,0.00,WeatherDisplay:10.37,2013-02-05 01:58:00,
2013-02-04 20:03:00,44.1,34.2,29.93,South,191,0.0,0.0,68,0.00,,,0.00,WeatherDisplay:10.37,2013-02-05 02:03:00,
2013-02-04 20:08:00,44.1,34.6,29.93,South,191,0.0,0.0,69,0.00,,,0.00,WeatherDisplay:10.37,2013-02-05 02:08:00,
2013-02-04 20:13:00,43.9,34.4,29.93,South,191,0.0,0.0,69,0.00,,,0.00,WeatherDisplay:10.37,2013-02-05 02:13:00,
2013-02-04 20:18:00,43.8,34.3,29.93,South,191,0.0,1.1,69,0.00,,,0.00,WeatherDisplay:10.37,2013-02-05 02:18:00,
2013-02-04 20:23:00,43.8,34.6,29.93,South,191,0.0,0.0,70,0.00,,,0.00,WeatherDisplay:10.37,2013-02-05 02:23:00,
2013-02-04 20:28:00,43.8,33.9,29.93,South,191,0.0,0.0,68,0.00,,,0.00,WeatherDisplay:10.37,2013-02-05 02:28:00,
2013-02-04 20:33:00,43.6,33.0,29.92,South,191,0.0,0.0,66,0.00,,,0.00,WeatherDisplay:10.37,2013-02-05 02:33:00,
2013-02-04 20:38:00,43.6,33.0,29.92,South,191,0.0,0.0,66,0.00,,,0.00,WeatherDisplay:10.37,2013-02-05 02:38:00,
2013-02-04 20:43:00,43.6,33.7,29.92,South,191,0.0,0.0,68,0.00,,,0.00,WeatherDisplay:10.37,2013-02-05 02:43:00,
2013-02-04 20:48:00,43.6,34.5,29.91,South,191,0.0,0.0,70,0.00,,,0.00,WeatherDisplay:10.37,2013-02-05 02:48:00,
2013-02-04 20:53:00,43.6,34.8,29.91,South,191,0.0,0.0,71,0.00,,,0.00,WeatherDisplay:10.37,2013-02-05 02:53:00,
2013-02-04 20:58:00,43.5,34.4,29.91,South,191,0.0,0.0,70,0.00,,,0.00,WeatherDisplay:10.37,2013-02-05 02:58:00,
2013-02-04 21:03:00,43.5,34.4,29.92,South,191,0.0,0.0,70,0.00,,,0.00,WeatherDisplay:10.37,2013-02-05 03:03:00,
2013-02-04 21:08:00,43.3,33.8,29.92,South,191,0.0,0.0,69,0.00,,,0.00,WeatherDisplay:10.37,2013-02-05 03:08:00,
2013-02-04 21:13:00,43.3,33.1,29.92,South,191,0.0,0.0,67,0.00,,,0.00,WeatherDisplay:10.37,2013-02-05 03:13:00,
2013-02-04 21:18:00,43.3,33.1,29.91,South,191,0.1,1.1,67,0.00,,,0.00,WeatherDisplay:10.37,2013-02-05 03:18:00,
2013-02-04 21:23:00,43.6,33.4,29.91,South,191,0.0,1.1,67,0.00,,,0.00,WeatherDisplay:10.37,2013-02-05 03:23:00,
2013-02-04 21:28:00,43.8,33.6,29.91,South,191,0.0,1.0,67,0.00,,,0.00,WeatherDisplay:10.37,2013-02-05 03:28:00,
2013-02-04 21:33:00,43.9,33.3,29.91,South,191,0.0,2.3,66,0.00,,,0.00,WeatherDisplay:10.37,2013-02-05 03:33:00,
2013-02-04 21:38:00,43.9,33.3,29.91,South,191,0.0,0.0,66,0.00,,,0.00,WeatherDisplay:10.37,2013-02-05 03:38:00,
2013-02-04 21:43:00,44.1,33.5,29.91,South,191,0.0,0.0,66,0.00,,,0.00,WeatherDisplay:10.37,2013-02-05 03:43:00,
2013-02-04 21:48:00,44.3,33.3,29.91,South,191,0.0,0.0,65,0.00,,,0.00,WeatherDisplay:10.37,2013-02-05 03:48:00,
2013-02-04 21:53:00,44.5,33.5,29.91,South,191,0.0,0.0,65,0.00,,,0.00,WeatherDisplay:10.37,2013-02-05 03:53:00,
2013-02-04 21:58:00,44.6,33.6,29.91,South,191,0.0,0.0,65,0.00,,,0.00,WeatherDisplay:10.37,2013-02-05 03:58:00,
2013-02-04 22:03:00,44.8,33.4,29.91,South,191,0.1,0.0,64,0.00,,,0.00,WeatherDisplay:10.37,2013-02-05 04:03:00,
2013-02-04 22:08:00,44.9,33.5,29.91,South,191,0.1,1.0,64,0.00,,,0.00,WeatherDisplay:10.37,2013-02-05 04:08:00,
2013-02-04 22:13:00,45.1,34.4,29.91,South,191,0.0,0.0,66,0.00,,,0.00,WeatherDisplay:10.37,2013-02-05 04:13:00,
2013-02-04 22:18:00,45.2,34.1,29.91,South,191,0.0,1.1,65,0.00,,,0.00,WeatherDisplay:10.37,2013-02-05 04:18:00,
2013-02-04 22:23:00,45.2,34.5,29.91,South,191,0.0,0.0,66,0.00,,,0.00,WeatherDisplay:10.37,2013-02-05 04:23:00,
2013-02-04 22:28:00,45.4,33.9,29.91,South,191,0.6,2.3,64,0.00,,,0.00,WeatherDisplay:10.37,2013-02-05 04:28:00,
2013-02-04 22:33:00,45.5,34.4,29.91,SSW,205,0.9,3.0,65,0.00,,,0.00,WeatherDisplay:10.37,2013-02-05 04:33:00,
2013-02-04 22:38:00,45.8,33.5,29.91,SW,221,0.0,0.0,62,0.00,,,0.00,WeatherDisplay:10.37,2013-02-05 04:38:00,
2013-02-04 22:43:00,46.0,33.7,29.91,SW,221,0.6,3.0,62,0.00,,,0.00,WeatherDisplay:10.37,2013-02-05 04:43:00,
2013-02-04 22:48:00,46.1,34.2,29.91,SSW,193,0.0,0.0,63,0.00,,,0.00,WeatherDisplay:10.37,2013-02-05 04:48:00,
2013-02-04 22:53:00,46.1,35.0,29.91,SSW,193,0.0,0.0,65,0.00,,,0.00,WeatherDisplay:10.37,2013-02-05 04:53:00,
2013-02-04 22:58:00,46.0,34.5,29.91,SSW,192,0.4,1.1,64,0.00,,,0.00,WeatherDisplay:10.37,2013-02-05 04:58:00,
2013-02-04 23:00:00,46.0,34.5,29.90,SSW,192,0.2,2.3,64,0.00,,,0.00,WeatherDisplay:10.37,2013-02-05 05:00:00,
2013-02-04 23:05:00,46.0,34.9,29.90,South,191,0.1,1.1,65,0.00,,,0.00,WeatherDisplay:10.37,2013-02-05 05:05:00,
2013-02-04 23:10:00,46.0,34.9,29.90,South,173,1.0,3.5,65,0.00,,,0.00,WeatherDisplay:10.37,2013-02-05 05:10:00,
2013-02-04 23:15:00,46.0,34.1,29.90,South,188,1.5,3.5,63,0.00,,,0.00,WeatherDisplay:10.37,2013-02-05 05:15:00,
2013-02-04 23:20:00,46.1,33.8,29.90,WSW,238,2.2,4.0,62,0.00,,,0.00,WeatherDisplay:10.37,2013-02-05 05:20:00,
2013-02-04 23:25:00,46.4,34.1,29.90,SSW,194,0.2,2.3,62,0.00,,,0.00,WeatherDisplay:10.37,2013-02-05 05:25:00,
2013-02-04 23:30:00,46.4,34.5,29.90,SSW,192,1.1,3.5,63,0.00,,,0.00,WeatherDisplay:10.37,2013-02-05 05:30:00,
2013-02-04 23:35:00,46.5,34.2,29.90,SSW,196,1.0,3.5,62,0.00,,,0.00,WeatherDisplay:10.37,2013-02-05 05:35:00,
2013-02-04 23:40:00,46.5,34.2,29.90,SSW,196,0.2,3.5,62,0.00,,,0.00,WeatherDisplay:10.37,2013-02-05 05:40:00,
2013-02-04 23:45:00,46.4,34.5,29.90,SSW,198,1.9,4.6,63,0.00,,,0.00,WeatherDisplay:10.37,2013-02-05 05:45:00,
2013-02-04 23:50:00,46.4,34.5,29.90,South,191,0.5,2.3,63,0.00,,,0.00,WeatherDisplay:10.37,2013-02-05 05:50:00,
2013-02-04 23:55:00,46.4,34.9,29.90,South,180,0.5,3.0,64,0.00,,,0.00,WeatherDisplay:10.37,2013-02-05 05:55:00,